sensor_id;sensor_type;location;lat;lon;timestamp;temperature;humidity
12006;DHT22;6062;47.294;12.182;2023-05-07T00:00:04;10.10;61.60
12006;DHT22;6062;47.294;12.182;2023-05-07T00:02:33;10.10;61.40
12006;DHT22;6062;47.294;12.182;2023-05-07T00:04:59;10.10;61.20
12006;DHT22;6062;47.294;12.182;2023-05-07T00:07:25;10.10;60.90
12006;DHT22;6062;47.294;12.182;2023-05-07T00:09:50;10.20;60.80
12006;DHT22;6062;47.294;12.182;2023-05-07T00:12:16;10.20;60.80
12006;DHT22;6062;47.294;12.182;2023-05-07T00:14:42;10.20;60.60
12006;DHT22;6062;47.294;12.182;2023-05-07T00:17:08;10.20;59.80
12006;DHT22;6062;47.294;12.182;2023-05-07T00:19:33;10.20;60.40
12006;DHT22;6062;47.294;12.182;2023-05-07T00:21:59;10.20;60.20
12006;DHT22;6062;47.294;12.182;2023-05-07T00:24:25;10.20;60.10
12006;DHT22;6062;47.294;12.182;2023-05-07T00:26:50;10.20;60.10
12006;DHT22;6062;47.294;12.182;2023-05-07T00:29:18;10.20;60.20
12006;DHT22;6062;47.294;12.182;2023-05-07T00:31:43;10.20;60.00
12006;DHT22;6062;47.294;12.182;2023-05-07T00:34:09;10.20;59.90
12006;DHT22;6062;47.294;12.182;2023-05-07T00:36:35;10.20;59.80
12006;DHT22;6062;47.294;12.182;2023-05-07T00:39:01;10.20;59.80
12006;DHT22;6062;47.294;12.182;2023-05-07T00:41:29;10.20;59.90
12006;DHT22;6062;47.294;12.182;2023-05-07T00:43:56;10.20;59.90
12006;DHT22;6062;47.294;12.182;2023-05-07T00:46:23;10.30;59.80
12006;DHT22;6062;47.294;12.182;2023-05-07T00:48:50;10.20;59.80
12006;DHT22;6062;47.294;12.182;2023-05-07T00:51:17;10.20;59.80
12006;DHT22;6062;47.294;12.182;2023-05-07T00:53:43;10.20;59.80
12006;DHT22;6062;47.294;12.182;2023-05-07T00:56:10;10.20;59.80
12006;DHT22;6062;47.294;12.182;2023-05-07T00:58:37;10.20;59.70
12006;DHT22;6062;47.294;12.182;2023-05-07T01:01:03;10.20;59.70
12006;DHT22;6062;47.294;12.182;2023-05-07T01:03:29;10.20;59.60
12006;DHT22;6062;47.294;12.182;2023-05-07T01:05:56;10.20;59.60
12006;DHT22;6062;47.294;12.182;2023-05-07T01:08:23;10.10;59.50
12006;DHT22;6062;47.294;12.182;2023-05-07T01:10:52;10.10;59.60
12006;DHT22;6062;47.294;12.182;2023-05-07T01:13:18;10.10;59.70
12006;DHT22;6062;47.294;12.182;2023-05-07T01:15:45;10.00;59.60
12006;DHT22;6062;47.294;12.182;2023-05-07T01:18:10;10.00;59.60
12006;DHT22;6062;47.294;12.182;2023-05-07T01:20:36;10.00;59.80
12006;DHT22;6062;47.294;12.182;2023-05-07T01:23:03;9.90;59.80
12006;DHT22;6062;47.294;12.182;2023-05-07T01:25:29;9.90;59.90
12006;DHT22;6062;47.294;12.182;2023-05-07T01:27:55;9.90;59.90
12006;DHT22;6062;47.294;12.182;2023-05-07T01:30:22;9.90;60.00
12006;DHT22;6062;47.294;12.182;2023-05-07T01:32:51;9.90;60.00
12006;DHT22;6062;47.294;12.182;2023-05-07T01:35:25;9.90;60.00
12006;DHT22;6062;47.294;12.182;2023-05-07T01:37:57;9.90;60.00
12006;DHT22;6062;47.294;12.182;2023-05-07T01:40:24;9.90;60.10
12006;DHT22;6062;47.294;12.182;2023-05-07T01:42:50;9.90;60.20
12006;DHT22;6062;47.294;12.182;2023-05-07T01:45:17;9.90;60.20
12006;DHT22;6062;47.294;12.182;2023-05-07T01:47:43;9.80;60.30
12006;DHT22;6062;47.294;12.182;2023-05-07T01:50:09;9.80;60.40
12006;DHT22;6062;47.294;12.182;2023-05-07T01:52:39;9.80;60.50
12006;DHT22;6062;47.294;12.182;2023-05-07T01:55:05;9.80;60.60
12006;DHT22;6062;47.294;12.182;2023-05-07T01:57:31;9.80;60.60
12006;DHT22;6062;47.294;12.182;2023-05-07T01:59:57;9.80;60.70
12006;DHT22;6062;47.294;12.182;2023-05-07T02:02:23;9.80;60.70
12006;DHT22;6062;47.294;12.182;2023-05-07T02:04:49;9.80;60.60
12006;DHT22;6062;47.294;12.182;2023-05-07T02:07:15;9.80;60.50
12006;DHT22;6062;47.294;12.182;2023-05-07T02:09:40;9.80;60.60
12006;DHT22;6062;47.294;12.182;2023-05-07T02:12:06;9.90;60.50
12006;DHT22;6062;47.294;12.182;2023-05-07T02:14:32;9.90;60.50
12006;DHT22;6062;47.294;12.182;2023-05-07T02:16:57;9.90;60.50
12006;DHT22;6062;47.294;12.182;2023-05-07T02:19:23;9.90;60.50
12006;DHT22;6062;47.294;12.182;2023-05-07T02:21:49;9.90;60.60
12006;DHT22;6062;47.294;12.182;2023-05-07T02:24:15;9.90;60.50
12006;DHT22;6062;47.294;12.182;2023-05-07T02:26:41;9.90;60.60
12006;DHT22;6062;47.294;12.182;2023-05-07T02:29:07;9.90;60.50
12006;DHT22;6062;47.294;12.182;2023-05-07T02:31:32;9.90;60.40
12006;DHT22;6062;47.294;12.182;2023-05-07T02:33:59;9.90;60.20
12006;DHT22;6062;47.294;12.182;2023-05-07T02:36:26;9.80;60.20
12006;DHT22;6062;47.294;12.182;2023-05-07T02:38:54;9.80;60.10
12006;DHT22;6062;47.294;12.182;2023-05-07T02:41:20;9.80;60.20
12006;DHT22;6062;47.294;12.182;2023-05-07T02:43:46;9.70;60.30
12006;DHT22;6062;47.294;12.182;2023-05-07T02:46:12;9.70;60.40
12006;DHT22;6062;47.294;12.182;2023-05-07T02:48:38;9.70;60.50
12006;DHT22;6062;47.294;12.182;2023-05-07T02:51:04;9.60;60.40
12006;DHT22;6062;47.294;12.182;2023-05-07T02:53:31;9.60;60.60
12006;DHT22;6062;47.294;12.182;2023-05-07T02:55:57;9.60;60.60
12006;DHT22;6062;47.294;12.182;2023-05-07T02:58:24;9.60;60.60
12006;DHT22;6062;47.294;12.182;2023-05-07T03:00:50;9.60;60.50
12006;DHT22;6062;47.294;12.182;2023-05-07T03:03:16;9.50;60.50
12006;DHT22;6062;47.294;12.182;2023-05-07T03:05:42;9.50;60.60
12006;DHT22;6062;47.294;12.182;2023-05-07T03:08:09;9.50;60.60
12006;DHT22;6062;47.294;12.182;2023-05-07T03:10:36;9.40;60.50
12006;DHT22;6062;47.294;12.182;2023-05-07T03:13:02;9.40;60.50
12006;DHT22;6062;47.294;12.182;2023-05-07T03:15:28;9.40;60.50
12006;DHT22;6062;47.294;12.182;2023-05-07T03:17:55;9.30;60.40
12006;DHT22;6062;47.294;12.182;2023-05-07T03:20:21;9.30;60.70
12006;DHT22;6062;47.294;12.182;2023-05-07T03:22:47;9.30;60.50
12006;DHT22;6062;47.294;12.182;2023-05-07T03:25:13;9.20;60.60
12006;DHT22;6062;47.294;12.182;2023-05-07T03:27:40;9.20;60.60
12006;DHT22;6062;47.294;12.182;2023-05-07T03:30:07;9.10;60.70
12006;DHT22;6062;47.294;12.182;2023-05-07T03:32:34;9.10;60.90
12006;DHT22;6062;47.294;12.182;2023-05-07T03:35:01;9.10;61.10
12006;DHT22;6062;47.294;12.182;2023-05-07T03:37:27;9.10;61.10
12006;DHT22;6062;47.294;12.182;2023-05-07T03:39:53;9.00;61.20
12006;DHT22;6062;47.294;12.182;2023-05-07T03:42:19;9.00;61.30
12006;DHT22;6062;47.294;12.182;2023-05-07T03:44:45;9.00;61.40
12006;DHT22;6062;47.294;12.182;2023-05-07T03:47:10;9.00;61.40
12006;DHT22;6062;47.294;12.182;2023-05-07T03:49:36;9.00;61.50
12006;DHT22;6062;47.294;12.182;2023-05-07T03:52:02;9.00;61.50
12006;DHT22;6062;47.294;12.182;2023-05-07T03:54:28;9.00;61.50
12006;DHT22;6062;47.294;12.182;2023-05-07T03:56:53;9.00;61.50
12006;DHT22;6062;47.294;12.182;2023-05-07T03:59:19;9.10;61.40
12006;DHT22;6062;47.294;12.182;2023-05-07T04:01:45;9.10;61.40
12006;DHT22;6062;47.294;12.182;2023-05-07T04:04:11;9.10;61.30
12006;DHT22;6062;47.294;12.182;2023-05-07T04:06:37;9.10;61.30
12006;DHT22;6062;47.294;12.182;2023-05-07T04:09:02;9.10;61.40
12006;DHT22;6062;47.294;12.182;2023-05-07T04:11:28;9.10;61.30
12006;DHT22;6062;47.294;12.182;2023-05-07T04:13:54;9.10;61.30
12006;DHT22;6062;47.294;12.182;2023-05-07T04:16:20;9.10;61.30
12006;DHT22;6062;47.294;12.182;2023-05-07T04:18:46;9.10;61.30
12006;DHT22;6062;47.294;12.182;2023-05-07T04:21:19;9.10;61.30
12006;DHT22;6062;47.294;12.182;2023-05-07T04:23:48;9.10;61.40
12006;DHT22;6062;47.294;12.182;2023-05-07T04:26:15;9.10;61.50
12006;DHT22;6062;47.294;12.182;2023-05-07T04:28:41;9.10;61.40
12006;DHT22;6062;47.294;12.182;2023-05-07T04:31:08;9.10;61.50
12006;DHT22;6062;47.294;12.182;2023-05-07T04:33:34;9.20;61.70
12006;DHT22;6062;47.294;12.182;2023-05-07T04:36:03;9.20;61.70
12006;DHT22;6062;47.294;12.182;2023-05-07T04:38:32;9.30;61.80
12006;DHT22;6062;47.294;12.182;2023-05-07T04:41:03;9.30;61.80
12006;DHT22;6062;47.294;12.182;2023-05-07T04:43:29;9.40;61.80
12006;DHT22;6062;47.294;12.182;2023-05-07T04:45:55;9.50;61.60
12006;DHT22;6062;47.294;12.182;2023-05-07T04:48:21;9.50;61.50
12006;DHT22;6062;47.294;12.182;2023-05-07T04:50:48;9.60;61.50
12006;DHT22;6062;47.294;12.182;2023-05-07T04:53:14;9.60;61.30
12006;DHT22;6062;47.294;12.182;2023-05-07T04:55:39;9.70;61.20
12006;DHT22;6062;47.294;12.182;2023-05-07T04:58:05;9.70;61.00
12006;DHT22;6062;47.294;12.182;2023-05-07T05:00:31;9.80;60.90
12006;DHT22;6062;47.294;12.182;2023-05-07T05:02:56;9.80;60.90
12006;DHT22;6062;47.294;12.182;2023-05-07T05:05:22;9.80;60.90
12006;DHT22;6062;47.294;12.182;2023-05-07T05:07:48;9.90;61.10
12006;DHT22;6062;47.294;12.182;2023-05-07T05:10:13;9.90;61.00
12006;DHT22;6062;47.294;12.182;2023-05-07T05:12:39;10.00;61.10
12006;DHT22;6062;47.294;12.182;2023-05-07T05:15:05;10.00;61.40
12006;DHT22;6062;47.294;12.182;2023-05-07T05:17:32;10.10;61.70
12006;DHT22;6062;47.294;12.182;2023-05-07T05:19:59;10.20;61.60
12006;DHT22;6062;47.294;12.182;2023-05-07T05:22:25;10.30;61.60
12006;DHT22;6062;47.294;12.182;2023-05-07T05:24:52;10.40;61.60
12006;DHT22;6062;47.294;12.182;2023-05-07T05:27:17;10.60;61.70
12006;DHT22;6062;47.294;12.182;2023-05-07T05:29:43;10.80;61.70
12006;DHT22;6062;47.294;12.182;2023-05-07T05:32:09;10.90;61.60
12006;DHT22;6062;47.294;12.182;2023-05-07T05:34:35;11.10;61.50
12006;DHT22;6062;47.294;12.182;2023-05-07T05:37:01;11.30;61.40
12006;DHT22;6062;47.294;12.182;2023-05-07T05:39:26;11.60;61.00
12006;DHT22;6062;47.294;12.182;2023-05-07T05:41:52;11.80;60.40
12006;DHT22;6062;47.294;12.182;2023-05-07T05:44:18;12.00;60.00
12006;DHT22;6062;47.294;12.182;2023-05-07T05:46:43;12.20;59.90
12006;DHT22;6062;47.294;12.182;2023-05-07T05:49:09;12.40;59.70
12006;DHT22;6062;47.294;12.182;2023-05-07T05:51:35;12.70;59.40
12006;DHT22;6062;47.294;12.182;2023-05-07T05:54:01;12.90;59.10
12006;DHT22;6062;47.294;12.182;2023-05-07T05:56:26;13.10;58.70
12006;DHT22;6062;47.294;12.182;2023-05-07T05:58:52;13.30;58.40
12006;DHT22;6062;47.294;12.182;2023-05-07T06:01:18;13.60;58.00
12006;DHT22;6062;47.294;12.182;2023-05-07T06:03:44;13.80;57.80
12006;DHT22;6062;47.294;12.182;2023-05-07T06:06:10;14.00;57.20
12006;DHT22;6062;47.294;12.182;2023-05-07T06:08:36;14.30;57.00
12006;DHT22;6062;47.294;12.182;2023-05-07T06:11:02;14.60;56.60
12006;DHT22;6062;47.294;12.182;2023-05-07T06:13:28;14.80;56.10
12006;DHT22;6062;47.294;12.182;2023-05-07T06:15:54;15.10;55.60
12006;DHT22;6062;47.294;12.182;2023-05-07T06:18:19;15.30;55.30
12006;DHT22;6062;47.294;12.182;2023-05-07T06:20:45;15.50;54.90
12006;DHT22;6062;47.294;12.182;2023-05-07T06:23:11;15.70;54.30
12006;DHT22;6062;47.294;12.182;2023-05-07T06:25:36;16.00;53.90
12006;DHT22;6062;47.294;12.182;2023-05-07T06:28:02;16.20;53.40
12006;DHT22;6062;47.294;12.182;2023-05-07T06:30:28;16.50;52.90
12006;DHT22;6062;47.294;12.182;2023-05-07T06:32:54;16.80;52.60
12006;DHT22;6062;47.294;12.182;2023-05-07T06:35:19;17.20;52.30
12006;DHT22;6062;47.294;12.182;2023-05-07T06:37:45;17.50;51.80
12006;DHT22;6062;47.294;12.182;2023-05-07T06:40:11;17.80;51.30
12006;DHT22;6062;47.294;12.182;2023-05-07T06:42:37;18.20;50.80
12006;DHT22;6062;47.294;12.182;2023-05-07T06:45:03;18.50;50.10
12006;DHT22;6062;47.294;12.182;2023-05-07T06:47:29;18.90;49.60
12006;DHT22;6062;47.294;12.182;2023-05-07T06:49:55;19.30;48.90
12006;DHT22;6062;47.294;12.182;2023-05-07T06:52:21;19.70;48.50
12006;DHT22;6062;47.294;12.182;2023-05-07T06:54:47;20.10;47.80
12006;DHT22;6062;47.294;12.182;2023-05-07T06:57:12;20.50;47.10
12006;DHT22;6062;47.294;12.182;2023-05-07T06:59:38;20.90;46.00
12006;DHT22;6062;47.294;12.182;2023-05-07T07:02:04;21.30;44.90
12006;DHT22;6062;47.294;12.182;2023-05-07T07:04:29;21.60;44.20
12006;DHT22;6062;47.294;12.182;2023-05-07T07:06:56;21.90;43.40
12006;DHT22;6062;47.294;12.182;2023-05-07T07:09:22;22.20;43.00
12006;DHT22;6062;47.294;12.182;2023-05-07T07:11:48;22.50;42.70
12006;DHT22;6062;47.294;12.182;2023-05-07T07:14:13;22.80;42.30
12006;DHT22;6062;47.294;12.182;2023-05-07T07:16:39;23.20;41.70
12006;DHT22;6062;47.294;12.182;2023-05-07T07:19:06;23.50;41.20
12006;DHT22;6062;47.294;12.182;2023-05-07T07:21:31;23.90;40.30
12006;DHT22;6062;47.294;12.182;2023-05-07T07:23:57;24.20;39.70
12006;DHT22;6062;47.294;12.182;2023-05-07T07:26:23;24.50;39.70
12006;DHT22;6062;47.294;12.182;2023-05-07T07:28:49;24.80;38.30
12006;DHT22;6062;47.294;12.182;2023-05-07T07:31:17;25.00;37.10
12006;DHT22;6062;47.294;12.182;2023-05-07T07:33:43;25.20;36.50
12006;DHT22;6062;47.294;12.182;2023-05-07T07:36:09;25.40;36.20
12006;DHT22;6062;47.294;12.182;2023-05-07T07:38:35;25.50;35.90
12006;DHT22;6062;47.294;12.182;2023-05-07T07:41:01;25.60;35.40
12006;DHT22;6062;47.294;12.182;2023-05-07T07:43:27;25.60;35.10
12006;DHT22;6062;47.294;12.182;2023-05-07T07:45:53;25.60;35.10
12006;DHT22;6062;47.294;12.182;2023-05-07T07:48:19;25.50;34.60
12006;DHT22;6062;47.294;12.182;2023-05-07T07:50:44;25.40;34.40
12006;DHT22;6062;47.294;12.182;2023-05-07T07:53:13;25.30;34.70
12006;DHT22;6062;47.294;12.182;2023-05-07T07:55:39;25.20;34.80
12006;DHT22;6062;47.294;12.182;2023-05-07T07:58:05;25.10;34.80
12006;DHT22;6062;47.294;12.182;2023-05-07T08:00:31;25.00;35.00
12006;DHT22;6062;47.294;12.182;2023-05-07T08:02:57;24.90;35.00
12006;DHT22;6062;47.294;12.182;2023-05-07T08:05:23;24.80;35.20
12006;DHT22;6062;47.294;12.182;2023-05-07T08:07:50;24.70;35.30
12006;DHT22;6062;47.294;12.182;2023-05-07T08:10:18;24.70;35.60
12006;DHT22;6062;47.294;12.182;2023-05-07T08:12:50;24.80;35.70
12006;DHT22;6062;47.294;12.182;2023-05-07T08:15:16;24.90;35.70
12006;DHT22;6062;47.294;12.182;2023-05-07T08:17:43;25.00;35.50
12006;DHT22;6062;47.294;12.182;2023-05-07T08:20:09;25.10;35.10
12006;DHT22;6062;47.294;12.182;2023-05-07T08:22:35;25.20;34.90
12006;DHT22;6062;47.294;12.182;2023-05-07T08:25:02;25.20;34.70
12006;DHT22;6062;47.294;12.182;2023-05-07T08:27:28;25.30;34.60
12006;DHT22;6062;47.294;12.182;2023-05-07T08:29:54;25.30;34.60
12006;DHT22;6062;47.294;12.182;2023-05-07T08:32:20;25.30;34.70
12006;DHT22;6062;47.294;12.182;2023-05-07T08:34:47;25.30;34.80
12006;DHT22;6062;47.294;12.182;2023-05-07T08:37:13;25.40;34.80
12006;DHT22;6062;47.294;12.182;2023-05-07T08:39:39;25.50;35.20
12006;DHT22;6062;47.294;12.182;2023-05-07T08:42:04;25.70;35.40
12006;DHT22;6062;47.294;12.182;2023-05-07T08:44:34;25.90;35.20
12006;DHT22;6062;47.294;12.182;2023-05-07T08:47:01;26.00;34.80
12006;DHT22;6062;47.294;12.182;2023-05-07T08:49:28;26.10;34.70
12006;DHT22;6062;47.294;12.182;2023-05-07T08:51:54;26.30;34.40
12006;DHT22;6062;47.294;12.182;2023-05-07T08:54:21;26.40;34.30
12006;DHT22;6062;47.294;12.182;2023-05-07T08:56:47;26.50;33.90
12006;DHT22;6062;47.294;12.182;2023-05-07T08:59:13;26.60;33.70
12006;DHT22;6062;47.294;12.182;2023-05-07T09:01:39;26.60;33.50
12006;DHT22;6062;47.294;12.182;2023-05-07T09:04:05;26.70;33.30
12006;DHT22;6062;47.294;12.182;2023-05-07T09:06:32;26.70;33.20
12006;DHT22;6062;47.294;12.182;2023-05-07T09:08:59;26.70;33.00
12006;DHT22;6062;47.294;12.182;2023-05-07T09:11:27;26.80;32.80
12006;DHT22;6062;47.294;12.182;2023-05-07T09:13:56;26.80;32.70
12006;DHT22;6062;47.294;12.182;2023-05-07T09:16:29;26.80;32.70
12006;DHT22;6062;47.294;12.182;2023-05-07T09:18:58;26.90;32.90
12006;DHT22;6062;47.294;12.182;2023-05-07T09:21:26;26.90;32.70
12006;DHT22;6062;47.294;12.182;2023-05-07T09:23:54;27.00;32.50
12006;DHT22;6062;47.294;12.182;2023-05-07T09:26:24;27.10;32.70
12006;DHT22;6062;47.294;12.182;2023-05-07T09:28:51;27.20;32.10
12006;DHT22;6062;47.294;12.182;2023-05-07T09:31:17;27.30;32.20
12006;DHT22;6062;47.294;12.182;2023-05-07T09:33:43;27.40;32.20
12006;DHT22;6062;47.294;12.182;2023-05-07T09:36:09;27.60;32.00
12006;DHT22;6062;47.294;12.182;2023-05-07T09:38:37;27.60;31.60
12006;DHT22;6062;47.294;12.182;2023-05-07T09:41:04;27.80;31.40
12006;DHT22;6062;47.294;12.182;2023-05-07T09:43:35;27.90;31.50
12006;DHT22;6062;47.294;12.182;2023-05-07T09:46:25;28.00;30.10
12006;DHT22;6062;47.294;12.182;2023-05-07T09:48:57;28.10;29.70
12006;DHT22;6062;47.294;12.182;2023-05-07T09:54:07;28.40;29.20
12006;DHT22;6062;47.294;12.182;2023-05-07T09:56:33;28.50;29.30
12006;DHT22;6062;47.294;12.182;2023-05-07T09:59:00;28.60;29.40
12006;DHT22;6062;47.294;12.182;2023-05-07T10:01:27;28.70;29.00
12006;DHT22;6062;47.294;12.182;2023-05-07T10:03:53;28.60;28.60
12006;DHT22;6062;47.294;12.182;2023-05-07T10:06:20;28.50;28.20
12006;DHT22;6062;47.294;12.182;2023-05-07T10:08:46;28.30;28.40
12006;DHT22;6062;47.294;12.182;2023-05-07T10:11:14;28.00;28.20
12006;DHT22;6062;47.294;12.182;2023-05-07T10:13:41;27.70;28.20
12006;DHT22;6062;47.294;12.182;2023-05-07T10:16:08;27.40;28.30
12006;DHT22;6062;47.294;12.182;2023-05-07T10:18:34;27.00;28.50
12006;DHT22;6062;47.294;12.182;2023-05-07T10:21:18;26.50;28.60
12006;DHT22;6062;47.294;12.182;2023-05-07T10:23:49;26.00;29.00
12006;DHT22;6062;47.294;12.182;2023-05-07T10:26:25;25.60;29.30
12006;DHT22;6062;47.294;12.182;2023-05-07T10:29:01;25.10;29.60
12006;DHT22;6062;47.294;12.182;2023-05-07T10:32:48;24.70;29.90
12006;DHT22;6062;47.294;12.182;2023-05-07T10:35:09;24.20;30.50
12006;DHT22;6062;47.294;12.182;2023-05-07T10:37:43;23.70;31.30
12006;DHT22;6062;47.294;12.182;2023-05-07T10:40:10;23.30;31.70
12006;DHT22;6062;47.294;12.182;2023-05-07T10:42:37;23.00;32.10
12006;DHT22;6062;47.294;12.182;2023-05-07T10:45:13;22.80;32.50
12006;DHT22;6062;47.294;12.182;2023-05-07T10:50:30;22.30;33.30
12006;DHT22;6062;47.294;12.182;2023-05-07T10:55:48;21.90;35.00
12006;DHT22;6062;47.294;12.182;2023-05-07T10:58:37;21.80;35.70
12006;DHT22;6062;47.294;12.182;2023-05-07T11:01:03;21.70;36.30
12006;DHT22;6062;47.294;12.182;2023-05-07T11:03:29;21.60;36.40
12006;DHT22;6062;47.294;12.182;2023-05-07T11:06:14;21.50;36.90
12006;DHT22;6062;47.294;12.182;2023-05-07T11:08:59;21.50;38.00
12006;DHT22;6062;47.294;12.182;2023-05-07T11:11:49;21.50;37.80
12006;DHT22;6062;47.294;12.182;2023-05-07T11:17:07;21.60;38.30
12006;DHT22;6062;47.294;12.182;2023-05-07T11:19:53;21.70;38.60
12006;DHT22;6062;47.294;12.182;2023-05-07T11:25:02;22.00;38.30
12006;DHT22;6062;47.294;12.182;2023-05-07T11:27:29;22.20;38.50
12006;DHT22;6062;47.294;12.182;2023-05-07T11:29:55;22.30;38.30
12006;DHT22;6062;47.294;12.182;2023-05-07T11:32:29;22.50;38.00
12006;DHT22;6062;47.294;12.182;2023-05-07T11:34:58;22.60;37.80
12006;DHT22;6062;47.294;12.182;2023-05-07T11:37:26;22.70;37.60
12006;DHT22;6062;47.294;12.182;2023-05-07T11:40:04;22.80;37.50
12006;DHT22;6062;47.294;12.182;2023-05-07T11:42:37;22.90;36.90
12006;DHT22;6062;47.294;12.182;2023-05-07T11:45:04;22.90;36.50
12006;DHT22;6062;47.294;12.182;2023-05-07T11:47:31;22.90;36.60
12006;DHT22;6062;47.294;12.182;2023-05-07T11:50:05;22.80;36.60
12006;DHT22;6062;47.294;12.182;2023-05-07T11:52:33;22.70;36.90
12006;DHT22;6062;47.294;12.182;2023-05-07T11:55:01;22.60;37.40
12006;DHT22;6062;47.294;12.182;2023-05-07T11:57:28;22.50;37.70
12006;DHT22;6062;47.294;12.182;2023-05-07T11:59:55;22.50;38.20
12006;DHT22;6062;47.294;12.182;2023-05-07T12:02:23;22.40;38.30
12006;DHT22;6062;47.294;12.182;2023-05-07T12:04:50;22.40;38.20
12006;DHT22;6062;47.294;12.182;2023-05-07T12:07:17;22.50;38.30
12006;DHT22;6062;47.294;12.182;2023-05-07T12:09:46;22.50;38.40
12006;DHT22;6062;47.294;12.182;2023-05-07T12:12:13;22.50;38.30
12006;DHT22;6062;47.294;12.182;2023-05-07T12:14:41;22.50;38.30
12006;DHT22;6062;47.294;12.182;2023-05-07T12:17:10;22.40;38.20
12006;DHT22;6062;47.294;12.182;2023-05-07T12:19:39;22.30;38.40
12006;DHT22;6062;47.294;12.182;2023-05-07T12:22:10;22.20;38.70
12006;DHT22;6062;47.294;12.182;2023-05-07T12:24:44;22.00;39.00
12006;DHT22;6062;47.294;12.182;2023-05-07T12:27:22;21.90;39.30
12006;DHT22;6062;47.294;12.182;2023-05-07T12:29:49;21.80;39.60
12006;DHT22;6062;47.294;12.182;2023-05-07T12:32:17;21.70;39.80
12006;DHT22;6062;47.294;12.182;2023-05-07T12:34:46;21.60;39.90
12006;DHT22;6062;47.294;12.182;2023-05-07T12:37:14;21.60;39.80
12006;DHT22;6062;47.294;12.182;2023-05-07T12:42:36;21.50;39.10
12006;DHT22;6062;47.294;12.182;2023-05-07T12:45:12;21.50;39.20
12006;DHT22;6062;47.294;12.182;2023-05-07T12:47:47;21.40;39.30
12006;DHT22;6062;47.294;12.182;2023-05-07T12:50:13;21.40;39.20
12006;DHT22;6062;47.294;12.182;2023-05-07T12:52:40;21.30;39.00
12006;DHT22;6062;47.294;12.182;2023-05-07T12:55:08;21.20;38.90
12006;DHT22;6062;47.294;12.182;2023-05-07T12:57:42;21.10;39.00
12006;DHT22;6062;47.294;12.182;2023-05-07T13:00:13;21.00;39.20
12006;DHT22;6062;47.294;12.182;2023-05-07T13:02:41;20.90;39.50
12006;DHT22;6062;47.294;12.182;2023-05-07T13:05:09;20.80;39.70
12006;DHT22;6062;47.294;12.182;2023-05-07T13:07:35;20.80;40.00
12006;DHT22;6062;47.294;12.182;2023-05-07T13:10:03;20.70;40.10
12006;DHT22;6062;47.294;12.182;2023-05-07T13:12:29;20.60;40.10
12006;DHT22;6062;47.294;12.182;2023-05-07T13:14:55;20.60;40.20
12006;DHT22;6062;47.294;12.182;2023-05-07T13:17:21;20.50;40.20
12006;DHT22;6062;47.294;12.182;2023-05-07T13:19:46;20.50;40.30
12006;DHT22;6062;47.294;12.182;2023-05-07T13:22:12;20.50;40.30
12006;DHT22;6062;47.294;12.182;2023-05-07T13:24:38;20.40;40.30
12006;DHT22;6062;47.294;12.182;2023-05-07T13:27:06;20.40;40.30
12006;DHT22;6062;47.294;12.182;2023-05-07T13:29:32;20.40;40.40
12006;DHT22;6062;47.294;12.182;2023-05-07T13:31:58;20.40;40.40
12006;DHT22;6062;47.294;12.182;2023-05-07T13:34:24;20.40;40.30
12006;DHT22;6062;47.294;12.182;2023-05-07T13:36:50;20.40;40.30
12006;DHT22;6062;47.294;12.182;2023-05-07T13:39:15;20.40;40.30
12006;DHT22;6062;47.294;12.182;2023-05-07T13:41:41;20.40;40.20
12006;DHT22;6062;47.294;12.182;2023-05-07T13:44:07;20.40;39.90
12006;DHT22;6062;47.294;12.182;2023-05-07T13:46:33;20.40;39.90
12006;DHT22;6062;47.294;12.182;2023-05-07T13:48:58;20.30;39.90
12006;DHT22;6062;47.294;12.182;2023-05-07T13:51:24;20.20;40.00
12006;DHT22;6062;47.294;12.182;2023-05-07T13:53:51;20.20;40.00
12006;DHT22;6062;47.294;12.182;2023-05-07T13:56:17;20.10;40.00
12006;DHT22;6062;47.294;12.182;2023-05-07T13:58:43;20.00;40.10
12006;DHT22;6062;47.294;12.182;2023-05-07T14:01:09;19.90;40.30
12006;DHT22;6062;47.294;12.182;2023-05-07T14:03:35;19.90;40.50
12006;DHT22;6062;47.294;12.182;2023-05-07T14:06:03;19.80;40.50
12006;DHT22;6062;47.294;12.182;2023-05-07T14:08:29;19.70;40.70
12006;DHT22;6062;47.294;12.182;2023-05-07T14:10:55;19.60;40.70
12006;DHT22;6062;47.294;12.182;2023-05-07T14:13:21;19.60;40.90
12006;DHT22;6062;47.294;12.182;2023-05-07T14:15:47;19.60;41.00
12006;DHT22;6062;47.294;12.182;2023-05-07T14:18:14;19.50;41.10
12006;DHT22;6062;47.294;12.182;2023-05-07T14:20:41;19.50;41.30
12006;DHT22;6062;47.294;12.182;2023-05-07T14:23:09;19.40;41.30
12006;DHT22;6062;47.294;12.182;2023-05-07T14:25:35;19.40;41.30
12006;DHT22;6062;47.294;12.182;2023-05-07T14:28:00;19.30;41.30
12006;DHT22;6062;47.294;12.182;2023-05-07T14:30:26;19.30;41.40
12006;DHT22;6062;47.294;12.182;2023-05-07T14:32:52;19.30;41.40
12006;DHT22;6062;47.294;12.182;2023-05-07T14:35:17;19.30;41.30
12006;DHT22;6062;47.294;12.182;2023-05-07T14:37:43;19.20;41.20
12006;DHT22;6062;47.294;12.182;2023-05-07T14:40:09;19.30;41.20
12006;DHT22;6062;47.294;12.182;2023-05-07T14:42:35;19.20;41.10
12006;DHT22;6062;47.294;12.182;2023-05-07T14:45:01;19.20;41.00
12006;DHT22;6062;47.294;12.182;2023-05-07T14:47:27;19.20;40.80
12006;DHT22;6062;47.294;12.182;2023-05-07T14:49:54;19.20;40.60
12006;DHT22;6062;47.294;12.182;2023-05-07T14:52:20;19.10;40.40
12006;DHT22;6062;47.294;12.182;2023-05-07T14:54:46;19.10;40.30
12006;DHT22;6062;47.294;12.182;2023-05-07T14:57:13;19.00;40.10
12006;DHT22;6062;47.294;12.182;2023-05-07T14:59:43;18.90;40.10
12006;DHT22;6062;47.294;12.182;2023-05-07T15:02:11;18.80;40.00
12006;DHT22;6062;47.294;12.182;2023-05-07T15:04:37;18.70;40.30
12006;DHT22;6062;47.294;12.182;2023-05-07T15:07:05;18.60;40.40
12006;DHT22;6062;47.294;12.182;2023-05-07T15:09:30;18.50;40.60
12006;DHT22;6062;47.294;12.182;2023-05-07T15:11:56;18.30;40.80
12006;DHT22;6062;47.294;12.182;2023-05-07T15:14:22;18.20;41.00
12006;DHT22;6062;47.294;12.182;2023-05-07T15:16:50;18.10;41.20
12006;DHT22;6062;47.294;12.182;2023-05-07T15:19:16;18.00;41.60
12006;DHT22;6062;47.294;12.182;2023-05-07T15:21:42;17.80;41.80
12006;DHT22;6062;47.294;12.182;2023-05-07T15:24:08;17.70;41.90
12006;DHT22;6062;47.294;12.182;2023-05-07T15:26:34;17.60;42.20
12006;DHT22;6062;47.294;12.182;2023-05-07T15:28:59;17.60;42.50
12006;DHT22;6062;47.294;12.182;2023-05-07T15:31:25;17.50;42.60
12006;DHT22;6062;47.294;12.182;2023-05-07T15:33:51;17.40;42.90
12006;DHT22;6062;47.294;12.182;2023-05-07T15:36:21;17.30;43.20
12006;DHT22;6062;47.294;12.182;2023-05-07T15:38:47;17.30;43.50
12006;DHT22;6062;47.294;12.182;2023-05-07T15:41:13;17.20;43.70
12006;DHT22;6062;47.294;12.182;2023-05-07T15:43:45;17.20;43.90
12006;DHT22;6062;47.294;12.182;2023-05-07T15:46:20;17.20;44.10
12006;DHT22;6062;47.294;12.182;2023-05-07T15:48:49;17.10;44.00
12006;DHT22;6062;47.294;12.182;2023-05-07T15:51:16;17.10;44.20